createdAt,value
2023-03-02T00:05:14.572Z,6.43
2023-03-02T00:13:20.131Z,6.45
2023-03-02T00:21:28.280Z,5.30
2023-03-02T00:29:33.650Z,6.22
2023-03-02T00:37:41.884Z,6.50
2023-03-02T00:45:48.029Z,7.20
2023-03-02T00:53:56.037Z,6.68
2023-03-02T01:02:02.865Z,6.03
2023-03-02T01:10:14.468Z,5.70
2023-03-02T01:18:20.884Z,5.45
2023-03-02T01:26:29.184Z,6.07
2023-03-02T01:34:34.830Z,5.65
2023-03-02T01:42:50.103Z,6.35
2023-03-02T01:50:56.191Z,5.80
2023-03-02T01:59:08.564Z,6.88
2023-03-02T02:07:14.319Z,6.30
2023-03-02T02:15:24.224Z,7.25
2023-03-02T02:23:32.927Z,7.20
2023-03-02T02:31:46.105Z,6.78
2023-03-02T02:39:53.873Z,6.10
2023-03-02T02:48:03.023Z,6.28
2023-03-02T02:56:10.974Z,7.10
2023-03-02T03:04:23.596Z,6.50
2023-03-02T03:12:31.680Z,6.15
2023-03-02T03:20:41.338Z,6.40
2023-03-02T03:28:46.937Z,6.45
2023-03-02T03:36:55.382Z,6.78
2023-03-02T03:45:01.349Z,6.80
2023-03-02T03:53:09.796Z,7.28
2023-03-02T04:01:15.414Z,6.38
2023-03-02T04:09:24.213Z,6.15
2023-03-02T04:17:31.311Z,6.47
2023-03-02T04:25:39.665Z,7.25
2023-03-02T04:33:50.734Z,6.47
2023-03-02T04:41:59.102Z,6.07
2023-03-02T04:50:04.659Z,6.82
2023-03-02T04:58:12.909Z,6.68
2023-03-02T05:06:19.139Z,7.15
2023-03-02T05:14:28.183Z,10.82
2023-03-02T05:22:33.558Z,10.35
2023-03-02T05:30:41.799Z,8.90
2023-03-02T05:38:47.474Z,9.77
2023-03-02T05:46:55.508Z,8.73
2023-03-02T05:55:00.829Z,8.25
2023-03-02T06:03:09.141Z,9.02
2023-03-02T06:11:15.647Z,9.13
2023-03-02T06:19:23.832Z,8.65
2023-03-02T06:27:29.603Z,9.40
2023-03-02T06:35:37.995Z,8.77
2023-03-02T06:43:43.532Z,11.55
2023-03-02T06:51:51.613Z,12.13
2023-03-02T06:59:57.013Z,10.68
2023-03-02T07:08:05.191Z,10.85
2023-03-02T07:16:12.247Z,8.27
2023-03-02T07:24:22.548Z,8.23
2023-03-02T07:32:28.370Z,7.15
2023-03-02T07:40:38.050Z,8.32
2023-03-02T07:48:43.551Z,6.88
2023-03-02T07:56:52.122Z,7.90
2023-03-02T08:04:57.524Z,7.70
2023-03-02T08:13:07.457Z,7.55
2023-03-02T08:21:18.630Z,8.02
2023-03-02T08:29:27.154Z,6.90
2023-03-02T08:37:32.672Z,7.75
2023-03-02T08:45:40.911Z,7.93
2023-03-02T08:53:50.661Z,6.38
2023-03-02T09:01:58.732Z,5.50
2023-03-02T09:10:04.197Z,5.72
2023-03-02T09:18:12.416Z,5.72
2023-03-02T09:26:17.902Z,5.50
2023-03-02T09:34:26.962Z,5.53
2023-03-02T09:42:58.893Z,4.68
2023-03-02T09:51:20.516Z,4.75
2023-03-02T09:59:30.474Z,6.57
2023-03-02T10:07:40.993Z,6.63
2023-03-02T10:15:58.337Z,6.20
2023-03-02T10:24:13.744Z,7.78
2023-03-02T10:32:23.852Z,8.25
2023-03-02T10:40:42.526Z,8.32
2023-03-02T10:48:52.288Z,9.20
2023-03-02T10:57:02.500Z,10.55
2023-03-02T11:05:26.867Z,8.55
2023-03-02T11:13:37.598Z,9.52
2023-03-02T11:21:46.844Z,9.05
2023-03-02T11:30:00.656Z,9.50
2023-03-02T11:38:18.976Z,13.35
2023-03-02T11:46:30.803Z,9.40
2023-03-02T11:54:44.319Z,9.55
2023-03-02T12:03:05.672Z,9.43
2023-03-02T12:11:31.288Z,7.80
2023-03-02T12:19:46.600Z,7.70
2023-03-02T12:27:54.375Z,7.30
2023-03-02T12:36:16.289Z,7.10
2023-03-02T12:44:38.942Z,8.90
2023-03-02T12:53:02.358Z,7.78
2023-03-02T13:01:08.581Z,7.60
2023-03-02T13:09:20.443Z,6.80
2023-03-02T13:17:29.716Z,7.15
2023-03-02T13:25:39.729Z,7.80
2023-03-02T13:33:49.560Z,8.27
2023-03-02T13:42:02.022Z,7.97
2023-03-02T13:50:10.609Z,7.72
2023-03-02T13:58:44.591Z,6.90
2023-03-02T14:07:01.629Z,7.22
2023-03-02T14:15:16.688Z,7.10
2023-03-02T14:23:23.305Z,6.78
2023-03-02T14:31:31.761Z,8.20
2023-03-02T14:39:43.232Z,7.70
2023-03-02T14:47:51.550Z,7.63
2023-03-02T14:55:57.163Z,7.80
2023-03-02T15:04:05.310Z,8.65
2023-03-02T15:12:11.351Z,8.82
2023-03-02T15:20:20.318Z,8.55
2023-03-02T15:28:25.773Z,8.65
2023-03-02T15:36:35.498Z,9.20
2023-03-02T15:44:40.965Z,11.45
2023-03-02T15:52:49.555Z,12.57
2023-03-02T16:00:59.078Z,11.63
2023-03-02T16:09:08.088Z,10.52
2023-03-02T16:17:13.717Z,12.00
2023-03-02T16:25:21.821Z,10.52
2023-03-02T16:33:27.432Z,10.77
2023-03-02T16:41:36.305Z,11.85
2023-03-02T16:49:41.832Z,11.35
2023-03-02T16:57:50.723Z,13.02
2023-03-02T17:06:01.518Z,13.25
2023-03-02T17:14:09.601Z,13.45
2023-03-02T17:22:15.616Z,12.13
2023-03-02T17:30:24.573Z,13.20
2023-03-02T17:38:30.284Z,15.85
2023-03-02T17:46:38.392Z,17.45
2023-03-02T17:54:44.263Z,14.85
2023-03-02T18:02:53.481Z,16.30
2023-03-02T18:11:02.245Z,17.48
2023-03-02T18:19:10.598Z,18.80
2023-03-02T18:27:16.645Z,16.83
2023-03-02T18:35:25.162Z,15.75
2023-03-02T18:43:32.098Z,16.02
2023-03-02T18:51:40.881Z,15.57
2023-03-02T18:59:46.583Z,15.75
2023-03-02T19:07:55.654Z,17.88
2023-03-02T19:16:02.252Z,17.73
2023-03-02T19:24:15.280Z,16.15
2023-03-02T19:32:21.317Z,19.67
2023-03-02T19:40:30.814Z,20.23
2023-03-02T19:48:37.134Z,16.95
2023-03-02T19:56:54.041Z,16.63
2023-03-02T20:04:59.617Z,17.38
2023-03-02T20:13:08.108Z,15.73
2023-03-02T20:21:13.672Z,15.75
2023-03-02T20:29:24.020Z,16.50
2023-03-02T20:37:30.410Z,17.92
2023-03-02T20:45:38.781Z,18.83
2023-03-02T20:53:47.408Z,20.50
2023-03-02T21:01:56.660Z,18.35
2023-03-02T21:10:02.340Z,19.10
2023-03-02T21:18:10.725Z,19.08
2023-03-02T21:26:17.800Z,17.10
2023-03-02T21:34:26.064Z,15.73
2023-03-02T21:42:31.769Z,15.77
2023-03-02T21:50:41.710Z,16.00
2023-03-02T21:58:47.512Z,17.35
2023-03-02T22:06:55.486Z,16.70
2023-03-02T22:15:04.387Z,17.60
2023-03-02T22:23:17.096Z,19.85
2023-03-02T22:31:24.510Z,22.70
2023-03-02T22:39:35.980Z,22.73
2023-03-02T22:47:42.366Z,21.25
2023-03-02T22:55:51.589Z,18.65
2023-03-02T23:04:03.860Z,19.42
2023-03-02T23:12:21.034Z,17.40
2023-03-02T23:20:27.110Z,16.95
2023-03-02T23:28:35.447Z,16.40
2023-03-02T23:36:40.886Z,17.33
2023-03-02T23:44:48.985Z,16.98
2023-03-02T23:52:54.650Z,16.90
